Wetterdaten: aktuell Dienstag, 20.08.2019 04:46
Datum Zeit Temp. A. Feuchte A. Luftdruck Regen Wind Sonnenschein ET UV Solar Taupunkt Windben
20.08.2019 04:46 13,3 C 93 % 1020,7 hPa 0,0 l/m 0,0 km/h (0 Bft) 0 min 0,000 mm 0,0 UV-I 0 W/m 12,2 C 0,0 km/h (0 Bft)
20.08.2019 03:46 13,4 C 93 % 1020,6 hPa 0,0 l/m 0,0 km/h (0 Bft) 0 min 0,000 mm 0,0 UV-I 0 W/m 12,3 C 0,0 km/h (0 Bft)
20.08.2019 02:46 13,6 C 93 % 1020,5 hPa 0,0 l/m 0,0 km/h (0 Bft) 0 min 0,000 mm 0,0 UV-I 0 W/m 12,5 C 0,0 km/h (0 Bft)
20.08.2019 01:46 13,3 C 91 % 1020,7 hPa 0,0 l/m 0,0 km/h (0 Bft) 0 min 0,000 mm 0,0 UV-I 0 W/m 11,9 C 0,0 km/h (0 Bft)
20.08.2019 00:46 14,1 C 89 % 1020,5 hPa 0,0 l/m 0,0 km/h (0 Bft) 0 min 0,000 mm 0,0 UV-I 0 W/m 12,3 C 0,0 km/h (0 Bft)
19.08.2019 23:46 14,9 C 88 % 1020,1 hPa 0,0 l/m 0,0 km/h (0 Bft) 0 min 0,000 mm 0,0 UV-I 0 W/m 12,9 C 0,0 km/h (0 Bft)
19.08.2019 22:46 15,4 C 88 % 1019,9 hPa 0,0 l/m 0,0 km/h (0 Bft) 0 min 0,001 mm 0,0 UV-I 0 W/m 13,4 C 0,0 km/h (0 Bft)
19.08.2019 21:46 15,7 C 81 % 1019,7 hPa 0,0 l/m 0,0 km/h (0 Bft) 0 min 0,000 mm 0,0 UV-I 0 W/m 12,4 C 0,0 km/h (0 Bft)
19.08.2019 20:46 17,4 C 77 % 1018,8 hPa 0,0 l/m 0,0 km/h (0 Bft) 0 min 0,025 mm 0,0 UV-I 0 W/m 13,3 C 0,0 km/h (0 Bft)
19.08.2019 19:46 19,9 C 71 % 1018,2 hPa 0,0 l/m 0,0 km/h (0 Bft) 42 min 0,076 mm 0,0 UV-I 18 W/m 14,5 C 0,0 km/h (0 Bft)
19.08.2019 18:46 20,8 C 65 % 1017,8 hPa 0,0 l/m 0,1 km/h (0 Bft) 60 min 0,203 mm 0,0 UV-I 80 W/m 14,0 C 1,6 km/h (1 Bft)
19.08.2019 17:46 21,1 C 59 % 1017,7 hPa 0,0 l/m 3,8 km/h (1 Bft) 60 min 0,001 mm 0,8 UV-I 256 W/m 12,8 C 6,4 km/h (2 Bft)
19.08.2019 16:46 21,2 C 59 % 1017,5 hPa 0,0 l/m 5,2 km/h (1 Bft) 60 min 0,355 mm 1,5 UV-I 346 W/m 12,9 C 11,3 km/h (2 Bft)
19.08.2019 15:46 20,6 C 62 % 1017,7 hPa 0,0 l/m 4,5 km/h (1 Bft) 60 min 0,356 mm 2,8 UV-I 620 W/m 13,1 C 6,4 km/h (2 Bft)
19.08.2019 14:46 18,9 C 72 % 1017,5 hPa 0,0 l/m 6,7 km/h (2 Bft) 60 min 0,178 mm 2,8 UV-I 325 W/m 13,7 C 12,9 km/h (3 Bft)
19.08.2019 13:46 17,7 C 77 % 1017,5 hPa 0,0 l/m 1,9 km/h (1 Bft) 60 min 0,076 mm 1,9 UV-I 310 W/m 13,6 C 3,2 km/h (1 Bft)
19.08.2019 12:46 16,7 C 86 % 1017,0 hPa 0,0 l/m 2,7 km/h (1 Bft) 54 min 0,076 mm 0,7 UV-I 99 W/m 14,3 C 4,8 km/h (1 Bft)
19.08.2019 11:46 16,3 C 86 % 1016,4 hPa 0,0 l/m 3,3 km/h (1 Bft) 54 min 0,076 mm 0,6 UV-I 94 W/m 14,0 C 4,8 km/h (1 Bft)
19.08.2019 10:46 16,1 C 89 % 1016,1 hPa 0,0 l/m 6,1 km/h (2 Bft) 48 min 0,051 mm 0,0 UV-I 51 W/m 14,3 C 11,3 km/h (2 Bft)
19.08.2019 09:46 16,4 C 91 % 1015,1 hPa 0,2 l/m 8,9 km/h (2 Bft) 24 min 0,001 mm 0,0 UV-I 51 W/m 14,9 C 12,9 km/h (3 Bft)
19.08.2019 08:46 16,5 C 95 % 1014,4 hPa 0,0 l/m 6,3 km/h (2 Bft) 20 min 0,025 mm 0,0 UV-I 26 W/m 15,7 C 11,3 km/h (2 Bft)
19.08.2019 07:46 16,0 C 95 % 1014,3 hPa 0,0 l/m 0,0 km/h (0 Bft) 0 min 0,000 mm 0,0 UV-I 39 W/m 15,2 C 0,0 km/h (0 Bft)
19.08.2019 06:46 15,6 C 95 % 1013,6 hPa 0,0 l/m 0,0 km/h (0 Bft) 0 min 0,000 mm 0,0 UV-I 1 W/m 14,8 C 0,0 km/h (0 Bft)
19.08.2019 05:46 15,7 C 95 % 1013,3 hPa 0,0 l/m 0,0 km/h (0 Bft) 0 min 0,000 mm 0,0 UV-I 0 W/m 14,9 C 0,0 km/h (0 Bft)
19.08.2019 05:00 15,7 C 95 % 1012,6 hPa 0,0 l/m 0,0 km/h (0 Bft) 0 min 0,000 mm 0,0 UV-I 0 W/m 14,9 C 0,0 km/h (0 Bft)
_ Min-Zeit 01:54 16:46 05:00 - 05:00 - - - - 01:54 05:00
Minimum _ 13,1 C 59 % 1012,6 hPa - 0,0 km/h (0 Bft) - - - - 11,7 C 0,0 km/h (0 Bft)
_ Max-Zeit 17:32 05:00 04:00 09:00 09:52 08:20 15:02 14:10 14:08 09:10 09:52
Maximum _ 21,4 C 95 % 1020,9 hPa 0,2 l/m 16,6 km/h
W-NW (3 Bft)
2 min 0,356 mm 4,3 UV-I 856 W/m 15,7 C 20,9 km/h
W-NW (4 Bft)
Durchschnitt _ 16,7 C 84 % 1017,2 hPa #0,2 l/m 2,0 km/h (1 Bft) #0 min. #0,000 mm 0,0 UV-I 0 W/m 13,8 C 3,6 km/h (1 Bft)